Lantana, Texas
Current Conditions -  °F | °C
As of 4:53 PM on Saturday 22 Nov 2014 (Local Time) from KDTO Reporting Station
Moderate Rain Moderate Rain  
Wind Chill: 61°   Ceiling: 1400
Heat Index: 61°   Visibility: 5mi
Dew Point: 58°   Wind: 3mph
Humidity: 90%   Direction: NA
Pressure: 29.83"   Gusts: NA
Location:  33.108°N, 97.1641°W
Report Text: KDTO 222253Z VRB03KT 5SM RA BR OVC014 16/14 A2983 RMK AO2 RAB19 SLP097 P0004 T01610144
Loading
Personal Weather Stations






























Interactive Weather Map New forecast layout! Learn more

10-Day Weather Forecast

Advertisements
Track Severe Weather on mobile